Fishing Creek, Maryland
Current Conditions -  °F | °C
As of 12:52 AM on Thursday 23 Oct 2014 (Local Time) from KNHK Reporting Station
Overcast Overcast  
Wind Chill: 53°   Ceiling: 5500
Heat Index: 53°   Visibility: 10mi
Dew Point: 45°   Wind: 21mph
Humidity: 74%   Direction: 300°WNW
Pressure: 29.86"   Gusts: NA
Location:  38.31°N, 76.23°W
Report Text: KNHK 230452Z AUTO 30018KT 10SM SCT038 OVC055 12/07 A2986 RMK AO2 SLP113 T01170072 401390117
Loading
Personal Weather Stations






























Interactive Weather Map
Tropical Storm Tracking
New forecast layout! Learn more

10-Day Weather Forecast

Advertisements
Track Severe Weather on mobile